sensor_id;sensor_type;location;lat;lon;timestamp;P1;durP1;ratioP1;P2;durP2;ratioP2
3573;SDS011;1801;51.050;6.246;2023-12-20T00:02:13;33.30;;;12.57;;
3573;SDS011;1801;51.050;6.246;2023-12-20T00:04:39;28.30;;;11.63;;
3573;SDS011;1801;51.050;6.246;2023-12-20T00:07:04;29.37;;;12.73;;
3573;SDS011;1801;51.050;6.246;2023-12-20T00:09:29;29.93;;;12.20;;
3573;SDS011;1801;51.050;6.246;2023-12-20T00:11:54;36.13;;;14.63;;
3573;SDS011;1801;51.050;6.246;2023-12-20T00:14:19;23.80;;;11.80;;
3573;SDS011;1801;51.050;6.246;2023-12-20T00:16:45;29.93;;;11.90;;
3573;SDS011;1801;51.050;6.246;2023-12-20T00:19:10;32.57;;;12.40;;
3573;SDS011;1801;51.050;6.246;2023-12-20T00:21:35;32.73;;;11.93;;
3573;SDS011;1801;51.050;6.246;2023-12-20T00:24:00;39.37;;;14.30;;
3573;SDS011;1801;51.050;6.246;2023-12-20T00:26:26;28.57;;;11.57;;
3573;SDS011;1801;51.050;6.246;2023-12-20T00:28:53;34.40;;;13.95;;
3573;SDS011;1801;51.050;6.246;2023-12-20T00:31:18;28.00;;;12.17;;
3573;SDS011;1801;51.050;6.246;2023-12-20T00:33:43;29.77;;;11.83;;
3573;SDS011;1801;51.050;6.246;2023-12-20T00:36:09;33.60;;;12.77;;
3573;SDS011;1801;51.050;6.246;2023-12-20T00:38:34;32.20;;;13.40;;
3573;SDS011;1801;51.050;6.246;2023-12-20T00:40:59;32.27;;;11.40;;
3573;SDS011;1801;51.050;6.246;2023-12-20T00:43:25;31.83;;;13.30;;
3573;SDS011;1801;51.050;6.246;2023-12-20T00:45:50;25.43;;;11.00;;
3573;SDS011;1801;51.050;6.246;2023-12-20T00:48:15;33.07;;;12.10;;
3573;SDS011;1801;51.050;6.246;2023-12-20T00:50:40;21.23;;;8.80;;
3573;SDS011;1801;51.050;6.246;2023-12-20T00:53:05;15.30;;;7.50;;
3573;SDS011;1801;51.050;6.246;2023-12-20T00:55:31;27.80;;;9.53;;
3573;SDS011;1801;51.050;6.246;2023-12-20T00:57:56;24.63;;;8.70;;
3573;SDS011;1801;51.050;6.246;2023-12-20T01:00:21;18.20;;;8.53;;
3573;SDS011;1801;51.050;6.246;2023-12-20T01:02:46;21.97;;;10.13;;
3573;SDS011;1801;51.050;6.246;2023-12-20T01:05:14;18.10;;;6.40;;
3573;SDS011;1801;51.050;6.246;2023-12-20T01:07:39;16.87;;;4.03;;
3573;SDS011;1801;51.050;6.246;2023-12-20T01:10:04;22.93;;;5.47;;
3573;SDS011;1801;51.050;6.246;2023-12-20T01:12:30;9.50;;;4.90;;
3573;SDS011;1801;51.050;6.246;2023-12-20T01:14:55;17.23;;;5.07;;
3573;SDS011;1801;51.050;6.246;2023-12-20T01:17:20;11.03;;;4.00;;
3573;SDS011;1801;51.050;6.246;2023-12-20T01:19:46;7.43;;;4.07;;
3573;SDS011;1801;51.050;6.246;2023-12-20T01:22:11;15.00;;;4.07;;
3573;SDS011;1801;51.050;6.246;2023-12-20T01:24:36;12.77;;;4.77;;
3573;SDS011;1801;51.050;6.246;2023-12-20T01:27:01;18.73;;;4.20;;
3573;SDS011;1801;51.050;6.246;2023-12-20T01:29:27;17.87;;;4.10;;
3573;SDS011;1801;51.050;6.246;2023-12-20T01:31:52;12.93;;;3.70;;
3573;SDS011;1801;51.050;6.246;2023-12-20T01:34:17;9.27;;;4.50;;
3573;SDS011;1801;51.050;6.246;2023-12-20T01:36:43;15.97;;;3.83;;
3573;SDS011;1801;51.050;6.246;2023-12-20T01:39:08;20.97;;;5.53;;
3573;SDS011;1801;51.050;6.246;2023-12-20T01:41:33;17.50;;;3.20;;
3573;SDS011;1801;51.050;6.246;2023-12-20T01:43:58;9.17;;;2.67;;
3573;SDS011;1801;51.050;6.246;2023-12-20T01:46:24;6.77;;;3.43;;
3573;SDS011;1801;51.050;6.246;2023-12-20T01:48:49;7.67;;;3.20;;
3573;SDS011;1801;51.050;6.246;2023-12-20T01:51:14;21.77;;;3.30;;
3573;SDS011;1801;51.050;6.246;2023-12-20T01:53:40;10.80;;;3.00;;
3573;SDS011;1801;51.050;6.246;2023-12-20T01:56:06;14.37;;;3.07;;
3573;SDS011;1801;51.050;6.246;2023-12-20T01:58:31;10.03;;;3.43;;
3573;SDS011;1801;51.050;6.246;2023-12-20T02:00:57;13.83;;;3.33;;
3573;SDS011;1801;51.050;6.246;2023-12-20T02:03:22;7.47;;;2.80;;
3573;SDS011;1801;51.050;6.246;2023-12-20T02:05:47;10.83;;;2.93;;
3573;SDS011;1801;51.050;6.246;2023-12-20T02:08:13;9.83;;;2.50;;
3573;SDS011;1801;51.050;6.246;2023-12-20T02:10:38;12.73;;;2.73;;
3573;SDS011;1801;51.050;6.246;2023-12-20T02:13:05;15.85;;;2.85;;
3573;SDS011;1801;51.050;6.246;2023-12-20T02:15:30;15.40;;;2.80;;
3573;SDS011;1801;51.050;6.246;2023-12-20T02:17:55;14.10;;;3.07;;
3573;SDS011;1801;51.050;6.246;2023-12-20T02:20:20;11.17;;;2.07;;
3573;SDS011;1801;51.050;6.246;2023-12-20T02:22:46;4.40;;;1.97;;
3573;SDS011;1801;51.050;6.246;2023-12-20T02:25:11;10.47;;;2.10;;
3573;SDS011;1801;51.050;6.246;2023-12-20T02:27:36;16.10;;;3.00;;
3573;SDS011;1801;51.050;6.246;2023-12-20T02:30:01;14.83;;;2.63;;
3573;SDS011;1801;51.050;6.246;2023-12-20T02:32:28;16.10;;;3.15;;
3573;SDS011;1801;51.050;6.246;2023-12-20T02:34:54;11.70;;;2.17;;
3573;SDS011;1801;51.050;6.246;2023-12-20T02:37:19;15.60;;;2.80;;
3573;SDS011;1801;51.050;6.246;2023-12-20T02:39:44;9.93;;;2.43;;
3573;SDS011;1801;51.050;6.246;2023-12-20T02:42:10;23.90;;;3.33;;
3573;SDS011;1801;51.050;6.246;2023-12-20T02:44:35;13.13;;;2.30;;
3573;SDS011;1801;51.050;6.246;2023-12-20T02:47:01;5.22;;;1.70;;
3573;SDS011;1801;51.050;6.246;2023-12-20T02:49:26;12.17;;;2.70;;
3573;SDS011;1801;51.050;6.246;2023-12-20T02:51:51;20.63;;;3.30;;
3573;SDS011;1801;51.050;6.246;2023-12-20T02:54:16;10.30;;;3.30;;
3573;SDS011;1801;51.050;6.246;2023-12-20T02:56:42;11.23;;;3.23;;
3573;SDS011;1801;51.050;6.246;2023-12-20T02:59:07;12.33;;;4.60;;
3573;SDS011;1801;51.050;6.246;2023-12-20T03:01:33;11.35;;;3.20;;
3573;SDS011;1801;51.050;6.246;2023-12-20T03:03:59;10.23;;;3.60;;
3573;SDS011;1801;51.050;6.246;2023-12-20T03:06:24;10.57;;;2.80;;
3573;SDS011;1801;51.050;6.246;2023-12-20T03:08:49;17.10;;;3.53;;
3573;SDS011;1801;51.050;6.246;2023-12-20T03:11:14;12.03;;;3.23;;
3573;SDS011;1801;51.050;6.246;2023-12-20T03:13:40;7.00;;;2.80;;
3573;SDS011;1801;51.050;6.246;2023-12-20T03:16:08;12.13;;;3.27;;
3573;SDS011;1801;51.050;6.246;2023-12-20T03:18:34;8.35;;;3.05;;
3573;SDS011;1801;51.050;6.246;2023-12-20T03:20:59;12.20;;;3.67;;
3573;SDS011;1801;51.050;6.246;2023-12-20T03:23:24;15.83;;;2.73;;
3573;SDS011;1801;51.050;6.246;2023-12-20T03:25:49;10.93;;;3.00;;
3573;SDS011;1801;51.050;6.246;2023-12-20T03:28:15;12.87;;;3.93;;
3573;SDS011;1801;51.050;6.246;2023-12-20T03:30:41;8.93;;;3.40;;
3573;SDS011;1801;51.050;6.246;2023-12-20T03:33:06;13.03;;;4.03;;
3573;SDS011;1801;51.050;6.246;2023-12-20T03:35:32;11.82;;;3.20;;
3573;SDS011;1801;51.050;6.246;2023-12-20T03:37:57;10.93;;;4.13;;
3573;SDS011;1801;51.050;6.246;2023-12-20T03:40:25;19.98;;;4.22;;
3573;SDS011;1801;51.050;6.246;2023-12-20T03:42:50;20.67;;;5.93;;
3573;SDS011;1801;51.050;6.246;2023-12-20T03:45:15;21.77;;;4.50;;
3573;SDS011;1801;51.050;6.246;2023-12-20T03:47:40;23.00;;;7.37;;
3573;SDS011;1801;51.050;6.246;2023-12-20T03:50:05;8.13;;;3.97;;
3573;SDS011;1801;51.050;6.246;2023-12-20T03:52:31;18.03;;;4.30;;
3573;SDS011;1801;51.050;6.246;2023-12-20T03:54:56;29.27;;;5.00;;
3573;SDS011;1801;51.050;6.246;2023-12-20T03:57:21;13.80;;;3.73;;
3573;SDS011;1801;51.050;6.246;2023-12-20T03:59:46;13.10;;;3.87;;
3573;SDS011;1801;51.050;6.246;2023-12-20T04:02:12;14.23;;;4.00;;
3573;SDS011;1801;51.050;6.246;2023-12-20T04:04:37;22.10;;;3.00;;
3573;SDS011;1801;51.050;6.246;2023-12-20T04:07:02;6.53;;;3.50;;
3573;SDS011;1801;51.050;6.246;2023-12-20T04:09:27;28.43;;;4.93;;
3573;SDS011;1801;51.050;6.246;2023-12-20T04:11:53;14.07;;;4.13;;
3573;SDS011;1801;51.050;6.246;2023-12-20T04:14:18;21.43;;;4.30;;
3573;SDS011;1801;51.050;6.246;2023-12-20T04:16:43;16.17;;;5.37;;
3573;SDS011;1801;51.050;6.246;2023-12-20T04:19:08;15.80;;;5.03;;
3573;SDS011;1801;51.050;6.246;2023-12-20T04:21:33;27.97;;;3.90;;
3573;SDS011;1801;51.050;6.246;2023-12-20T04:23:59;9.00;;;3.57;;
3573;SDS011;1801;51.050;6.246;2023-12-20T04:26:24;15.40;;;3.60;;
3573;SDS011;1801;51.050;6.246;2023-12-20T04:28:49;17.57;;;3.60;;
3573;SDS011;1801;51.050;6.246;2023-12-20T04:31:14;15.73;;;4.10;;
3573;SDS011;1801;51.050;6.246;2023-12-20T04:33:40;15.43;;;3.77;;
3573;SDS011;1801;51.050;6.246;2023-12-20T04:36:05;9.63;;;3.47;;
3573;SDS011;1801;51.050;6.246;2023-12-20T04:38:30;15.83;;;4.03;;
3573;SDS011;1801;51.050;6.246;2023-12-20T04:40:55;15.20;;;4.63;;
3573;SDS011;1801;51.050;6.246;2023-12-20T04:43:21;12.30;;;3.83;;
3573;SDS011;1801;51.050;6.246;2023-12-20T04:45:46;18.63;;;4.23;;
3573;SDS011;1801;51.050;6.246;2023-12-20T04:48:12;13.70;;;3.63;;
3573;SDS011;1801;51.050;6.246;2023-12-20T04:50:37;12.43;;;3.43;;
3573;SDS011;1801;51.050;6.246;2023-12-20T04:53:02;19.03;;;4.33;;
3573;SDS011;1801;51.050;6.246;2023-12-20T04:55:27;5.10;;;2.67;;
3573;SDS011;1801;51.050;6.246;2023-12-20T04:57:53;15.50;;;4.40;;
3573;SDS011;1801;51.050;6.246;2023-12-20T05:00:18;6.10;;;1.90;;
3573;SDS011;1801;51.050;6.246;2023-12-20T05:02:43;13.40;;;3.60;;
3573;SDS011;1801;51.050;6.246;2023-12-20T05:05:08;15.40;;;3.17;;
3573;SDS011;1801;51.050;6.246;2023-12-20T05:07:33;16.70;;;3.90;;
3573;SDS011;1801;51.050;6.246;2023-12-20T05:09:59;14.23;;;3.87;;
3573;SDS011;1801;51.050;6.246;2023-12-20T05:12:24;13.67;;;4.90;;
3573;SDS011;1801;51.050;6.246;2023-12-20T05:14:50;12.37;;;4.67;;
3573;SDS011;1801;51.050;6.246;2023-12-20T05:17:15;6.82;;;3.58;;
3573;SDS011;1801;51.050;6.246;2023-12-20T05:19:41;7.27;;;3.10;;
3573;SDS011;1801;51.050;6.246;2023-12-20T05:22:06;20.43;;;3.77;;
3573;SDS011;1801;51.050;6.246;2023-12-20T05:24:31;2.80;;;1.70;;
3573;SDS011;1801;51.050;6.246;2023-12-20T05:26:56;14.30;;;4.33;;
3573;SDS011;1801;51.050;6.246;2023-12-20T05:29:22;14.23;;;3.37;;
3573;SDS011;1801;51.050;6.246;2023-12-20T05:31:47;14.17;;;2.87;;
3573;SDS011;1801;51.050;6.246;2023-12-20T05:34:12;7.40;;;2.80;;
3573;SDS011;1801;51.050;6.246;2023-12-20T05:36:37;18.03;;;3.50;;
3573;SDS011;1801;51.050;6.246;2023-12-20T05:45:09;6.32;;;2.03;;
3573;SDS011;1801;51.050;6.246;2023-12-20T05:47:34;15.20;;;4.20;;
3573;SDS011;1801;51.050;6.246;2023-12-20T05:49:59;23.33;;;5.47;;
3573;SDS011;1801;51.050;6.246;2023-12-20T05:52:25;22.90;;;3.83;;
3573;SDS011;1801;51.050;6.246;2023-12-20T05:54:50;9.97;;;2.80;;
3573;SDS011;1801;51.050;6.246;2023-12-20T05:57:15;4.90;;;3.20;;
3573;SDS011;1801;51.050;6.246;2023-12-20T05:59:40;7.83;;;2.60;;
3573;SDS011;1801;51.050;6.246;2023-12-20T06:02:05;16.03;;;3.33;;
3573;SDS011;1801;51.050;6.246;2023-12-20T06:04:31;20.63;;;2.60;;
3573;SDS011;1801;51.050;6.246;2023-12-20T06:06:56;7.17;;;2.97;;
3573;SDS011;1801;51.050;6.246;2023-12-20T06:09:21;12.67;;;3.33;;
3573;SDS011;1801;51.050;6.246;2023-12-20T06:11:46;10.83;;;5.30;;
3573;SDS011;1801;51.050;6.246;2023-12-20T06:14:12;14.47;;;4.03;;
3573;SDS011;1801;51.050;6.246;2023-12-20T06:16:37;22.33;;;3.67;;
3573;SDS011;1801;51.050;6.246;2023-12-20T06:19:02;12.53;;;3.87;;
3573;SDS011;1801;51.050;6.246;2023-12-20T06:21:27;16.47;;;4.10;;
3573;SDS011;1801;51.050;6.246;2023-12-20T06:23:53;10.93;;;2.87;;
3573;SDS011;1801;51.050;6.246;2023-12-20T06:26:18;10.37;;;2.60;;
3573;SDS011;1801;51.050;6.246;2023-12-20T06:28:43;9.80;;;2.90;;
3573;SDS011;1801;51.050;6.246;2023-12-20T06:31:08;12.40;;;4.33;;
3573;SDS011;1801;51.050;6.246;2023-12-20T06:33:33;21.03;;;2.30;;
3573;SDS011;1801;51.050;6.246;2023-12-20T06:35:59;8.03;;;3.17;;
3573;SDS011;1801;51.050;6.246;2023-12-20T06:38:24;8.73;;;2.27;;
3573;SDS011;1801;51.050;6.246;2023-12-20T06:40:50;11.20;;;4.13;;
3573;SDS011;1801;51.050;6.246;2023-12-20T06:43:15;8.73;;;3.80;;
3573;SDS011;1801;51.050;6.246;2023-12-20T06:45:40;13.03;;;4.20;;
3573;SDS011;1801;51.050;6.246;2023-12-20T06:48:06;20.93;;;4.10;;
3573;SDS011;1801;51.050;6.246;2023-12-20T06:50:31;7.90;;;3.40;;
3573;SDS011;1801;51.050;6.246;2023-12-20T06:52:56;16.87;;;4.00;;
3573;SDS011;1801;51.050;6.246;2023-12-20T06:55:21;22.27;;;5.27;;
3573;SDS011;1801;51.050;6.246;2023-12-20T06:57:46;8.33;;;3.87;;
3573;SDS011;1801;51.050;6.246;2023-12-20T07:00:12;16.63;;;5.00;;
3573;SDS011;1801;51.050;6.246;2023-12-20T07:02:37;11.40;;;4.23;;
3573;SDS011;1801;51.050;6.246;2023-12-20T07:05:03;17.50;;;4.10;;
3573;SDS011;1801;51.050;6.246;2023-12-20T07:07:29;23.45;;;4.50;;
3573;SDS011;1801;51.050;6.246;2023-12-20T07:09:54;19.10;;;4.33;;
3573;SDS011;1801;51.050;6.246;2023-12-20T07:12:19;35.33;;;4.90;;
3573;SDS011;1801;51.050;6.246;2023-12-20T07:14:45;14.00;;;4.33;;
3573;SDS011;1801;51.050;6.246;2023-12-20T07:17:10;14.63;;;4.93;;
3573;SDS011;1801;51.050;6.246;2023-12-20T07:19:38;19.13;;;5.43;;
3573;SDS011;1801;51.050;6.246;2023-12-20T07:22:03;12.00;;;2.87;;
3573;SDS011;1801;51.050;6.246;2023-12-20T07:24:29;17.03;;;4.17;;
3573;SDS011;1801;51.050;6.246;2023-12-20T07:26:54;18.03;;;5.37;;
3573;SDS011;1801;51.050;6.246;2023-12-20T07:29:19;14.17;;;5.33;;
3573;SDS011;1801;51.050;6.246;2023-12-20T07:31:44;20.53;;;4.93;;
3573;SDS011;1801;51.050;6.246;2023-12-20T07:34:10;16.80;;;4.50;;
3573;SDS011;1801;51.050;6.246;2023-12-20T07:36:35;31.70;;;4.33;;
3573;SDS011;1801;51.050;6.246;2023-12-20T07:39:00;22.20;;;6.03;;
3573;SDS011;1801;51.050;6.246;2023-12-20T07:41:25;19.40;;;3.80;;
3573;SDS011;1801;51.050;6.246;2023-12-20T07:43:50;22.17;;;3.60;;
3573;SDS011;1801;51.050;6.246;2023-12-20T07:46:16;19.00;;;5.20;;
3573;SDS011;1801;51.050;6.246;2023-12-20T07:48:41;17.50;;;4.33;;
3573;SDS011;1801;51.050;6.246;2023-12-20T07:51:07;13.47;;;4.00;;
3573;SDS011;1801;51.050;6.246;2023-12-20T07:53:34;16.77;;;4.45;;
3573;SDS011;1801;51.050;6.246;2023-12-20T07:56:00;10.60;;;2.50;;
3573;SDS011;1801;51.050;6.246;2023-12-20T07:58:25;6.53;;;2.43;;
3573;SDS011;1801;51.050;6.246;2023-12-20T08:00:50;13.73;;;4.30;;
3573;SDS011;1801;51.050;6.246;2023-12-20T08:03:16;15.33;;;3.87;;
3573;SDS011;1801;51.050;6.246;2023-12-20T08:05:41;23.27;;;3.97;;
3573;SDS011;1801;51.050;6.246;2023-12-20T08:08:06;14.67;;;5.10;;
3573;SDS011;1801;51.050;6.246;2023-12-20T08:10:31;9.13;;;3.20;;
3573;SDS011;1801;51.050;6.246;2023-12-20T08:12:56;10.07;;;3.27;;
3573;SDS011;1801;51.050;6.246;2023-12-20T08:15:22;8.50;;;4.07;;
3573;SDS011;1801;51.050;6.246;2023-12-20T08:17:47;9.37;;;3.50;;
3573;SDS011;1801;51.050;6.246;2023-12-20T08:20:12;25.97;;;6.30;;
3573;SDS011;1801;51.050;6.246;2023-12-20T08:22:37;17.60;;;4.53;;
3573;SDS011;1801;51.050;6.246;2023-12-20T08:25:02;17.23;;;3.70;;
3573;SDS011;1801;51.050;6.246;2023-12-20T08:27:28;6.70;;;3.00;;
3573;SDS011;1801;51.050;6.246;2023-12-20T08:29:54;12.43;;;3.27;;
3573;SDS011;1801;51.050;6.246;2023-12-20T08:32:19;13.57;;;2.90;;
3573;SDS011;1801;51.050;6.246;2023-12-20T08:34:44;18.67;;;3.63;;
3573;SDS011;1801;51.050;6.246;2023-12-20T08:37:09;19.07;;;6.20;;
3573;SDS011;1801;51.050;6.246;2023-12-20T08:39:34;15.27;;;4.07;;
3573;SDS011;1801;51.050;6.246;2023-12-20T08:41:59;9.13;;;4.20;;
3573;SDS011;1801;51.050;6.246;2023-12-20T08:44:25;14.10;;;5.03;;
3573;SDS011;1801;51.050;6.246;2023-12-20T08:46:50;11.27;;;2.90;;
3573;SDS011;1801;51.050;6.246;2023-12-20T08:49:15;17.57;;;5.00;;
3573;SDS011;1801;51.050;6.246;2023-12-20T08:51:40;11.33;;;3.00;;
3573;SDS011;1801;51.050;6.246;2023-12-20T08:54:06;14.20;;;3.90;;
3573;SDS011;1801;51.050;6.246;2023-12-20T08:56:33;19.10;;;4.80;;
3573;SDS011;1801;51.050;6.246;2023-12-20T08:58:58;7.87;;;2.80;;
3573;SDS011;1801;51.050;6.246;2023-12-20T09:01:23;16.93;;;4.90;;
3573;SDS011;1801;51.050;6.246;2023-12-20T09:03:49;12.93;;;5.00;;
3573;SDS011;1801;51.050;6.246;2023-12-20T09:06:14;9.13;;;3.00;;
3573;SDS011;1801;51.050;6.246;2023-12-20T09:08:39;18.00;;;4.03;;
3573;SDS011;1801;51.050;6.246;2023-12-20T09:11:04;9.10;;;3.70;;
3573;SDS011;1801;51.050;6.246;2023-12-20T09:13:29;6.80;;;1.63;;
3573;SDS011;1801;51.050;6.246;2023-12-20T09:15:56;10.98;;;3.88;;
3573;SDS011;1801;51.050;6.246;2023-12-20T09:18:22;14.00;;;3.13;;
3573;SDS011;1801;51.050;6.246;2023-12-20T09:20:47;7.37;;;3.10;;
3573;SDS011;1801;51.050;6.246;2023-12-20T09:23:12;20.43;;;3.60;;
3573;SDS011;1801;51.050;6.246;2023-12-20T09:25:37;20.33;;;3.30;;
3573;SDS011;1801;51.050;6.246;2023-12-20T09:28:03;8.87;;;2.70;;
3573;SDS011;1801;51.050;6.246;2023-12-20T09:30:28;30.47;;;4.43;;
3573;SDS011;1801;51.050;6.246;2023-12-20T09:32:54;21.67;;;3.57;;
3573;SDS011;1801;51.050;6.246;2023-12-20T09:35:19;15.40;;;3.53;;
3573;SDS011;1801;51.050;6.246;2023-12-20T09:37:44;11.20;;;2.80;;
3573;SDS011;1801;51.050;6.246;2023-12-20T09:40:12;14.85;;;4.55;;
3573;SDS011;1801;51.050;6.246;2023-12-20T09:42:39;9.77;;;3.00;;
3573;SDS011;1801;51.050;6.246;2023-12-20T09:45:08;13.63;;;3.50;;
3573;SDS011;1801;51.050;6.246;2023-12-20T09:47:34;9.90;;;3.65;;
3573;SDS011;1801;51.050;6.246;2023-12-20T09:50:00;13.60;;;2.90;;
3573;SDS011;1801;51.050;6.246;2023-12-20T09:52:25;12.60;;;3.70;;
3573;SDS011;1801;51.050;6.246;2023-12-20T09:54:52;14.97;;;2.93;;
3573;SDS011;1801;51.050;6.246;2023-12-20T09:57:17;12.75;;;2.72;;
3573;SDS011;1801;51.050;6.246;2023-12-20T09:59:42;14.03;;;2.53;;
3573;SDS011;1801;51.050;6.246;2023-12-20T10:02:08;11.90;;;3.97;;
3573;SDS011;1801;51.050;6.246;2023-12-20T10:04:37;19.73;;;3.77;;
3573;SDS011;1801;51.050;6.246;2023-12-20T10:07:03;7.37;;;2.90;;
3573;SDS011;1801;51.050;6.246;2023-12-20T10:09:29;17.83;;;6.07;;
3573;SDS011;1801;51.050;6.246;2023-12-20T10:11:56;15.25;;;2.88;;
3573;SDS011;1801;51.050;6.246;2023-12-20T10:14:22;10.32;;;3.40;;
3573;SDS011;1801;51.050;6.246;2023-12-20T10:16:48;9.70;;;2.57;;
3573;SDS011;1801;51.050;6.246;2023-12-20T10:19:15;10.57;;;2.47;;
3573;SDS011;1801;51.050;6.246;2023-12-20T10:21:41;24.95;;;3.17;;
3573;SDS011;1801;51.050;6.246;2023-12-20T10:24:06;4.13;;;3.07;;
3573;SDS011;1801;51.050;6.246;2023-12-20T10:26:31;16.60;;;4.20;;
3573;SDS011;1801;51.050;6.246;2023-12-20T10:29:00;5.93;;;2.60;;
3573;SDS011;1801;51.050;6.246;2023-12-20T10:31:32;17.50;;;2.45;;
3573;SDS011;1801;51.050;6.246;2023-12-20T10:33:58;12.45;;;4.70;;
3573;SDS011;1801;51.050;6.246;2023-12-20T10:36:24;14.88;;;3.22;;
3573;SDS011;1801;51.050;6.246;2023-12-20T10:38:51;22.75;;;3.20;;
3573;SDS011;1801;51.050;6.246;2023-12-20T10:41:17;6.13;;;2.10;;
3573;SDS011;1801;51.050;6.246;2023-12-20T10:43:46;1.85;;;1.10;;
3573;SDS011;1801;51.050;6.246;2023-12-20T10:46:12;12.43;;;3.40;;
3573;SDS011;1801;51.050;6.246;2023-12-20T10:48:37;36.67;;;3.13;;
3573;SDS011;1801;51.050;6.246;2023-12-20T10:51:04;10.02;;;2.63;;
3573;SDS011;1801;51.050;6.246;2023-12-20T10:53:29;5.77;;;2.57;;
3573;SDS011;1801;51.050;6.246;2023-12-20T10:55:55;11.70;;;3.20;;
3573;SDS011;1801;51.050;6.246;2023-12-20T10:58:21;10.68;;;3.00;;
3573;SDS011;1801;51.050;6.246;2023-12-20T11:00:47;4.03;;;1.70;;
3573;SDS011;1801;51.050;6.246;2023-12-20T11:03:14;6.75;;;2.25;;
3573;SDS011;1801;51.050;6.246;2023-12-20T11:08:47;11.68;;;3.13;;
3573;SDS011;1801;51.050;6.246;2023-12-20T11:11:23;6.55;;;2.22;;
3573;SDS011;1801;51.050;6.246;2023-12-20T11:16:19;11.65;;;3.35;;
3573;SDS011;1801;51.050;6.246;2023-12-20T11:18:44;7.70;;;3.77;;
3573;SDS011;1801;51.050;6.246;2023-12-20T11:21:10;7.13;;;2.57;;
3573;SDS011;1801;51.050;6.246;2023-12-20T11:23:35;1.90;;;1.40;;
3573;SDS011;1801;51.050;6.246;2023-12-20T11:26:01;6.37;;;1.70;;
3573;SDS011;1801;51.050;6.246;2023-12-20T11:28:27;4.93;;;2.35;;
3573;SDS011;1801;51.050;6.246;2023-12-20T11:30:56;10.20;;;3.50;;
3573;SDS011;1801;51.050;6.246;2023-12-20T11:33:22;13.77;;;2.28;;
3573;SDS011;1801;51.050;6.246;2023-12-20T11:35:48;11.48;;;3.63;;
3573;SDS011;1801;51.050;6.246;2023-12-20T11:38:13;16.97;;;3.30;;
3573;SDS011;1801;51.050;6.246;2023-12-20T11:40:39;8.03;;;2.80;;
3573;SDS011;1801;51.050;6.246;2023-12-20T11:43:05;15.93;;;3.20;;
3573;SDS011;1801;51.050;6.246;2023-12-20T11:45:31;9.50;;;3.10;;
3573;SDS011;1801;51.050;6.246;2023-12-20T11:47:57;14.20;;;4.30;;
3573;SDS011;1801;51.050;6.246;2023-12-20T11:50:22;10.77;;;2.87;;
3573;SDS011;1801;51.050;6.246;2023-12-20T11:52:48;13.23;;;4.20;;
3573;SDS011;1801;51.050;6.246;2023-12-20T11:55:14;5.43;;;2.50;;
3573;SDS011;1801;51.050;6.246;2023-12-20T11:57:39;11.27;;;3.70;;
3573;SDS011;1801;51.050;6.246;2023-12-20T12:00:04;13.93;;;3.40;;
3573;SDS011;1801;51.050;6.246;2023-12-20T12:02:31;13.07;;;4.05;;
3573;SDS011;1801;51.050;6.246;2023-12-20T12:04:56;11.57;;;3.70;;
3573;SDS011;1801;51.050;6.246;2023-12-20T12:07:23;13.35;;;4.15;;
3573;SDS011;1801;51.050;6.246;2023-12-20T12:09:48;10.83;;;2.67;;
3573;SDS011;1801;51.050;6.246;2023-12-20T12:12:14;15.43;;;5.43;;
3573;SDS011;1801;51.050;6.246;2023-12-20T12:14:39;8.77;;;2.60;;
3573;SDS011;1801;51.050;6.246;2023-12-20T12:17:11;8.55;;;2.72;;
3573;SDS011;1801;51.050;6.246;2023-12-20T12:19:36;15.43;;;3.92;;
3573;SDS011;1801;51.050;6.246;2023-12-20T12:22:05;14.13;;;4.20;;
3573;SDS011;1801;51.050;6.246;2023-12-20T12:24:37;13.90;;;3.83;;
3573;SDS011;1801;51.050;6.246;2023-12-20T12:27:03;11.13;;;3.03;;
3573;SDS011;1801;51.050;6.246;2023-12-20T12:29:28;11.67;;;3.97;;
3573;SDS011;1801;51.050;6.246;2023-12-20T12:31:53;8.97;;;3.97;;
3573;SDS011;1801;51.050;6.246;2023-12-20T12:34:19;11.63;;;3.70;;
3573;SDS011;1801;51.050;6.246;2023-12-20T12:36:44;17.23;;;4.47;;
3573;SDS011;1801;51.050;6.246;2023-12-20T12:39:13;8.93;;;4.47;;
3573;SDS011;1801;51.050;6.246;2023-12-20T12:41:40;15.73;;;4.03;;
3573;SDS011;1801;51.050;6.246;2023-12-20T12:44:05;25.50;;;4.83;;
3573;SDS011;1801;51.050;6.246;2023-12-20T12:46:31;15.83;;;3.30;;
3573;SDS011;1801;51.050;6.246;2023-12-20T12:48:57;10.35;;;3.42;;
3573;SDS011;1801;51.050;6.246;2023-12-20T12:51:23;7.63;;;3.47;;
3573;SDS011;1801;51.050;6.246;2023-12-20T12:53:48;6.87;;;3.47;;
3573;SDS011;1801;51.050;6.246;2023-12-20T12:56:13;9.00;;;3.77;;
3573;SDS011;1801;51.050;6.246;2023-12-20T12:58:39;6.47;;;3.40;;
3573;SDS011;1801;51.050;6.246;2023-12-20T13:01:04;12.30;;;4.40;;
3573;SDS011;1801;51.050;6.246;2023-12-20T13:03:29;13.73;;;3.80;;
3573;SDS011;1801;51.050;6.246;2023-12-20T13:05:55;11.63;;;3.80;;
3573;SDS011;1801;51.050;6.246;2023-12-20T13:08:20;13.97;;;3.90;;
3573;SDS011;1801;51.050;6.246;2023-12-20T13:10:45;11.67;;;3.40;;
3573;SDS011;1801;51.050;6.246;2023-12-20T13:13:11;11.73;;;3.67;;
3573;SDS011;1801;51.050;6.246;2023-12-20T13:15:36;5.60;;;2.10;;
3573;SDS011;1801;51.050;6.246;2023-12-20T13:18:01;16.13;;;3.13;;
3573;SDS011;1801;51.050;6.246;2023-12-20T13:20:27;10.10;;;2.87;;
3573;SDS011;1801;51.050;6.246;2023-12-20T13:22:52;7.77;;;1.80;;
3573;SDS011;1801;51.050;6.246;2023-12-20T13:25:17;8.23;;;3.60;;
3573;SDS011;1801;51.050;6.246;2023-12-20T13:27:43;8.83;;;4.00;;
3573;SDS011;1801;51.050;6.246;2023-12-20T13:30:08;5.63;;;2.93;;
3573;SDS011;1801;51.050;6.246;2023-12-20T13:32:34;14.80;;;3.20;;
3573;SDS011;1801;51.050;6.246;2023-12-20T13:34:59;9.00;;;3.40;;
3573;SDS011;1801;51.050;6.246;2023-12-20T13:37:24;9.00;;;3.77;;
3573;SDS011;1801;51.050;6.246;2023-12-20T13:39:50;14.73;;;5.30;;
3573;SDS011;1801;51.050;6.246;2023-12-20T13:42:15;13.87;;;3.30;;
3573;SDS011;1801;51.050;6.246;2023-12-20T13:44:40;14.03;;;3.33;;
3573;SDS011;1801;51.050;6.246;2023-12-20T13:47:05;12.10;;;4.13;;
3573;SDS011;1801;51.050;6.246;2023-12-20T13:49:31;13.47;;;3.60;;
3573;SDS011;1801;51.050;6.246;2023-12-20T13:51:56;10.73;;;3.53;;
3573;SDS011;1801;51.050;6.246;2023-12-20T13:54:22;9.07;;;4.10;;
3573;SDS011;1801;51.050;6.246;2023-12-20T13:56:47;15.47;;;4.23;;
3573;SDS011;1801;51.050;6.246;2023-12-20T13:59:13;15.03;;;4.90;;
3573;SDS011;1801;51.050;6.246;2023-12-20T14:01:40;17.55;;;4.03;;
3573;SDS011;1801;51.050;6.246;2023-12-20T14:04:05;10.57;;;4.20;;
3573;SDS011;1801;51.050;6.246;2023-12-20T14:06:30;14.60;;;2.67;;
3573;SDS011;1801;51.050;6.246;2023-12-20T14:08:55;8.53;;;4.70;;
3573;SDS011;1801;51.050;6.246;2023-12-20T14:11:21;6.57;;;2.90;;
3573;SDS011;1801;51.050;6.246;2023-12-20T14:13:46;19.47;;;4.00;;
3573;SDS011;1801;51.050;6.246;2023-12-20T14:16:11;6.87;;;3.03;;
3573;SDS011;1801;51.050;6.246;2023-12-20T14:18:37;8.37;;;3.43;;
3573;SDS011;1801;51.050;6.246;2023-12-20T14:21:02;6.33;;;2.47;;
3573;SDS011;1801;51.050;6.246;2023-12-20T14:23:27;13.63;;;3.70;;
3573;SDS011;1801;51.050;6.246;2023-12-20T14:25:53;17.43;;;4.30;;
3573;SDS011;1801;51.050;6.246;2023-12-20T14:28:18;9.80;;;3.30;;
3573;SDS011;1801;51.050;6.246;2023-12-20T14:30:43;5.30;;;2.20;;
3573;SDS011;1801;51.050;6.246;2023-12-20T14:33:09;7.27;;;3.43;;
3573;SDS011;1801;51.050;6.246;2023-12-20T14:35:34;9.30;;;4.30;;
3573;SDS011;1801;51.050;6.246;2023-12-20T14:37:59;10.97;;;2.93;;
3573;SDS011;1801;51.050;6.246;2023-12-20T14:40:24;2.67;;;2.03;;
3573;SDS011;1801;51.050;6.246;2023-12-20T14:42:49;8.80;;;3.50;;
3573;SDS011;1801;51.050;6.246;2023-12-20T14:45:16;9.23;;;4.43;;
3573;SDS011;1801;51.050;6.246;2023-12-20T14:47:42;6.80;;;3.20;;
3573;SDS011;1801;51.050;6.246;2023-12-20T14:50:07;10.73;;;3.30;;
3573;SDS011;1801;51.050;6.246;2023-12-20T14:52:33;13.07;;;4.30;;
3573;SDS011;1801;51.050;6.246;2023-12-20T14:55:01;13.70;;;4.37;;
3573;SDS011;1801;51.050;6.246;2023-12-20T14:57:27;15.73;;;3.87;;
3573;SDS011;1801;51.050;6.246;2023-12-20T14:59:54;12.82;;;4.07;;
3573;SDS011;1801;51.050;6.246;2023-12-20T15:02:19;15.13;;;3.30;;
3573;SDS011;1801;51.050;6.246;2023-12-20T15:04:44;21.03;;;4.87;;
3573;SDS011;1801;51.050;6.246;2023-12-20T15:07:10;16.57;;;4.60;;